sensor_id;sensor_type;location;lat;lon;timestamp;pressure;altitude;pressure_sealevel;temperature;humidity
51849;BME280;38952;51.090;-1.832;2022-12-07T00:01:36;101162.84;;;1.73;94.68
51849;BME280;38952;51.090;-1.832;2022-12-07T00:04:07;101160.31;;;1.71;94.50
51849;BME280;38952;51.090;-1.832;2022-12-07T00:06:57;101126.44;;;1.47;94.51
51849;BME280;38952;51.090;-1.832;2022-12-07T00:09:32;101154.09;;;1.56;94.44
51849;BME280;38952;51.090;-1.832;2022-12-07T00:12:08;101153.28;;;1.55;95.14
51849;BME280;38952;51.090;-1.832;2022-12-07T00:14:33;101155.50;;;1.52;95.09
51849;BME280;38952;51.090;-1.832;2022-12-07T00:16:59;101160.56;;;1.55;95.72
51849;BME280;38952;51.090;-1.832;2022-12-07T00:19:32;101147.34;;;1.45;95.15
51849;BME280;38952;51.090;-1.832;2022-12-07T00:21:57;101150.22;;;1.59;95.38
51849;BME280;38952;51.090;-1.832;2022-12-07T00:24:23;101145.75;;;1.66;95.35
51849;BME280;38952;51.090;-1.832;2022-12-07T00:26:48;101134.03;;;1.59;95.48
51849;BME280;38952;51.090;-1.832;2022-12-07T00:29:19;101136.63;;;1.67;95.19
51849;BME280;38952;51.090;-1.832;2022-12-07T00:31:46;101145.25;;;1.77;95.35
51849;BME280;38952;51.090;-1.832;2022-12-07T00:34:17;101137.94;;;1.71;94.97
51849;BME280;38952;51.090;-1.832;2022-12-07T00:36:43;101111.56;;;1.51;94.77
51849;BME280;38952;51.090;-1.832;2022-12-07T00:39:08;101123.16;;;1.52;94.69
51849;BME280;38952;51.090;-1.832;2022-12-07T00:41:34;101128.50;;;1.45;95.27
51849;BME280;38952;51.090;-1.832;2022-12-07T00:44:00;101126.81;;;1.44;95.38
51849;BME280;38952;51.090;-1.832;2022-12-07T00:46:26;101108.53;;;1.25;95.48
51849;BME280;38952;51.090;-1.832;2022-12-07T00:48:52;101097.03;;;1.16;95.41
51849;BME280;38952;51.090;-1.832;2022-12-07T00:51:22;101114.88;;;1.17;95.17
51849;BME280;38952;51.090;-1.832;2022-12-07T00:53:51;101124.78;;;1.16;95.77
51849;BME280;38952;51.090;-1.832;2022-12-07T00:56:22;101121.53;;;1.06;95.97
51849;BME280;38952;51.090;-1.832;2022-12-07T00:58:55;101128.88;;;1.12;96.05
51849;BME280;38952;51.090;-1.832;2022-12-07T01:01:21;101122.28;;;1.00;96.04
51849;BME280;38952;51.090;-1.832;2022-12-07T01:03:47;101123.50;;;0.97;95.85
51849;BME280;38952;51.090;-1.832;2022-12-07T01:06:18;101126.56;;;0.94;96.40
51849;BME280;38952;51.090;-1.832;2022-12-07T01:08:44;101126.28;;;0.89;96.13
51849;BME280;38952;51.090;-1.832;2022-12-07T01:11:12;101133.53;;;0.89;96.13
51849;BME280;38952;51.090;-1.832;2022-12-07T01:13:38;101134.28;;;0.82;96.40
51849;BME280;38952;51.090;-1.832;2022-12-07T01:16:05;101122.94;;;0.72;96.83
51849;BME280;38952;51.090;-1.832;2022-12-07T01:18:33;101116.13;;;0.61;96.36
51849;BME280;38952;51.090;-1.832;2022-12-07T01:21:01;101112.66;;;0.52;96.80
51849;BME280;38952;51.090;-1.832;2022-12-07T01:23:30;101124.38;;;0.60;97.32
51849;BME280;38952;51.090;-1.832;2022-12-07T01:25:57;101104.69;;;0.44;97.37
51849;BME280;38952;51.090;-1.832;2022-12-07T01:28:23;101125.13;;;0.54;97.37
51849;BME280;38952;51.090;-1.832;2022-12-07T01:31:00;101107.09;;;0.39;97.39
51849;BME280;38952;51.090;-1.832;2022-12-07T01:33:28;101118.53;;;0.41;97.31
51849;BME280;38952;51.090;-1.832;2022-12-07T01:36:00;101124.28;;;0.38;97.69
51849;BME280;38952;51.090;-1.832;2022-12-07T01:38:25;101123.97;;;0.33;97.67
51849;BME280;38952;51.090;-1.832;2022-12-07T01:40:55;101110.94;;;0.22;97.70
51849;BME280;38952;51.090;-1.832;2022-12-07T01:43:21;101110.66;;;0.16;97.93
51849;BME280;38952;51.090;-1.832;2022-12-07T01:45:48;101095.94;;;0.04;97.73
51849;BME280;38952;51.090;-1.832;2022-12-07T01:48:16;101114.72;;;0.12;98.03
51849;BME280;38952;51.090;-1.832;2022-12-07T01:50:45;101112.38;;;0.09;97.99
51849;BME280;38952;51.090;-1.832;2022-12-07T01:53:13;101113.34;;;0.16;97.92
51849;BME280;38952;51.090;-1.832;2022-12-07T01:55:42;101101.63;;;0.09;98.38
51849;BME280;38952;51.090;-1.832;2022-12-07T01:58:09;101085.53;;;0.01;98.24
51849;BME280;38952;51.090;-1.832;2022-12-07T02:00:36;101108.19;;;0.07;98.64
51849;BME280;38952;51.090;-1.832;2022-12-07T02:03:15;101122.41;;;0.15;97.96
51849;BME280;38952;51.090;-1.832;2022-12-07T02:05:43;101107.38;;;0.06;98.08
51849;BME280;38952;51.090;-1.832;2022-12-07T02:08:09;101119.44;;;0.10;98.42
51849;BME280;38952;51.090;-1.832;2022-12-07T02:10:36;101104.75;;;-0.02;98.75
51849;BME280;38952;51.090;-1.832;2022-12-07T02:13:02;101121.41;;;0.16;98.91
51849;BME280;38952;51.090;-1.832;2022-12-07T02:21:16;101123.91;;;0.41;97.98
51849;BME280;38952;51.090;-1.832;2022-12-07T02:29:27;101131.47;;;0.76;98.18
51849;BME280;38952;51.090;-1.832;2022-12-07T02:32:03;101127.88;;;0.83;97.56
51849;BME280;38952;51.090;-1.832;2022-12-07T02:34:42;101111.72;;;0.83;97.42
51849;BME280;38952;51.090;-1.832;2022-12-07T02:37:21;101126.88;;;0.99;97.71
51849;BME280;38952;51.090;-1.832;2022-12-07T02:39:54;101133.00;;;1.08;97.74
51849;BME280;38952;51.090;-1.832;2022-12-07T02:42:33;101116.44;;;1.11;96.95
51849;BME280;38952;51.090;-1.832;2022-12-07T02:45:02;101122.75;;;1.18;97.13
51849;BME280;38952;51.090;-1.832;2022-12-07T02:47:29;101127.41;;;1.25;97.50
51849;BME280;38952;51.090;-1.832;2022-12-07T02:49:57;101117.63;;;1.24;97.49
51849;BME280;38952;51.090;-1.832;2022-12-07T02:52:27;101116.81;;;1.23;97.06
51849;BME280;38952;51.090;-1.832;2022-12-07T02:54:55;101110.28;;;1.32;97.26
51849;BME280;38952;51.090;-1.832;2022-12-07T03:00:23;101106.16;;;1.51;96.87
51849;BME280;38952;51.090;-1.832;2022-12-07T03:03:06;101108.38;;;1.63;96.63
51849;BME280;38952;51.090;-1.832;2022-12-07T03:05:52;101102.97;;;1.63;96.41
51849;BME280;38952;51.090;-1.832;2022-12-07T03:08:54;101112.59;;;1.72;96.58
51849;BME280;38952;51.090;-1.832;2022-12-07T03:11:26;101095.53;;;1.65;96.50
51849;BME280;38952;51.090;-1.832;2022-12-07T03:14:02;101108.13;;;1.79;96.09
51849;BME280;38952;51.090;-1.832;2022-12-07T03:16:51;101108.44;;;1.91;95.33
51849;BME280;38952;51.090;-1.832;2022-12-07T03:19:20;101105.00;;;1.97;95.92
51849;BME280;38952;51.090;-1.832;2022-12-07T03:22:02;101102.34;;;2.04;95.30
51849;BME280;38952;51.090;-1.832;2022-12-07T03:24:56;101104.75;;;2.14;94.89
51849;BME280;38952;51.090;-1.832;2022-12-07T03:27:25;101123.56;;;2.29;94.78
51849;BME280;38952;51.090;-1.832;2022-12-07T03:30:12;101110.69;;;2.31;94.09
51849;BME280;38952;51.090;-1.832;2022-12-07T03:33:02;101112.38;;;2.32;93.46
51849;BME280;38952;51.090;-1.832;2022-12-07T03:35:37;101119.44;;;2.33;94.05
51849;BME280;38952;51.090;-1.832;2022-12-07T03:38:16;101115.34;;;2.37;94.12
51849;BME280;38952;51.090;-1.832;2022-12-07T03:41:02;101096.97;;;2.25;93.38
51849;BME280;38952;51.090;-1.832;2022-12-07T03:43:32;101108.25;;;2.36;93.46
51849;BME280;38952;51.090;-1.832;2022-12-07T03:46:06;101099.53;;;2.34;93.28
51849;BME280;38952;51.090;-1.832;2022-12-07T03:48:38;101098.66;;;2.33;94.01
51849;BME280;38952;51.090;-1.832;2022-12-07T03:51:14;101116.25;;;2.51;93.96
51849;BME280;38952;51.090;-1.832;2022-12-07T03:54:00;101108.34;;;2.49;93.69
51849;BME280;38952;51.090;-1.832;2022-12-07T03:56:31;101110.91;;;2.57;93.12
51849;BME280;38952;51.090;-1.832;2022-12-07T03:58:58;101097.56;;;2.49;93.04
51849;BME280;38952;51.090;-1.832;2022-12-07T04:01:24;101108.84;;;2.59;92.98
51849;BME280;38952;51.090;-1.832;2022-12-07T04:03:50;101095.50;;;2.51;93.24
51849;BME280;38952;51.090;-1.832;2022-12-07T04:06:15;101083.97;;;2.36;92.26
51849;BME280;38952;51.090;-1.832;2022-12-07T04:08:43;101098.75;;;2.40;92.46
51849;BME280;38952;51.090;-1.832;2022-12-07T04:11:08;101103.47;;;2.38;91.94
51849;BME280;38952;51.090;-1.832;2022-12-07T04:13:34;101078.19;;;2.17;91.87
51849;BME280;38952;51.090;-1.832;2022-12-07T04:16:19;101106.56;;;2.35;92.09
51849;BME280;38952;51.090;-1.832;2022-12-07T04:18:45;101109.94;;;2.37;92.37
51849;BME280;38952;51.090;-1.832;2022-12-07T04:21:11;101101.97;;;2.29;91.73
51849;BME280;38952;51.090;-1.832;2022-12-07T04:23:36;101079.59;;;2.13;91.88
51849;BME280;38952;51.090;-1.832;2022-12-07T04:26:04;101098.38;;;2.21;91.46
51849;BME280;38952;51.090;-1.832;2022-12-07T04:28:29;101108.94;;;2.16;92.04
51849;BME280;38952;51.090;-1.832;2022-12-07T04:30:55;101091.97;;;2.01;91.79
51849;BME280;38952;51.090;-1.832;2022-12-07T04:33:21;101097.03;;;1.89;92.07
51849;BME280;38952;51.090;-1.832;2022-12-07T04:35:46;101091.19;;;1.64;92.04
51849;BME280;38952;51.090;-1.832;2022-12-07T04:38:11;101078.03;;;1.24;92.48
51849;BME280;38952;51.090;-1.832;2022-12-07T04:40:37;101084.03;;;1.04;92.45
51849;BME280;38952;51.090;-1.832;2022-12-07T04:43:02;101080.69;;;0.87;93.39
51849;BME280;38952;51.090;-1.832;2022-12-07T04:45:28;101071.22;;;0.62;93.81
51849;BME280;38952;51.090;-1.832;2022-12-07T04:48:00;101071.84;;;0.49;94.33
51849;BME280;38952;51.090;-1.832;2022-12-07T04:50:26;101084.47;;;0.48;94.37
51849;BME280;38952;51.090;-1.832;2022-12-07T04:52:51;101085.84;;;0.44;94.84
51849;BME280;38952;51.090;-1.832;2022-12-07T04:55:17;101078.34;;;0.55;94.97
51849;BME280;38952;51.090;-1.832;2022-12-07T04:57:42;101075.22;;;0.66;94.88
51849;BME280;38952;51.090;-1.832;2022-12-07T05:00:10;101086.25;;;0.86;94.49
51849;BME280;38952;51.090;-1.832;2022-12-07T05:02:35;101082.28;;;0.97;94.38
51849;BME280;38952;51.090;-1.832;2022-12-07T05:05:01;101079.47;;;1.05;94.29
51849;BME280;38952;51.090;-1.832;2022-12-07T05:07:26;101071.66;;;1.10;94.04
51849;BME280;38952;51.090;-1.832;2022-12-07T05:09:52;101043.06;;;0.94;93.42
51849;BME280;38952;51.090;-1.832;2022-12-07T05:12:20;101048.09;;;0.82;93.91
51849;BME280;38952;51.090;-1.832;2022-12-07T05:14:45;101053.69;;;0.66;94.41
51849;BME280;38952;51.090;-1.832;2022-12-07T05:17:18;101059.97;;;0.43;94.53
51849;BME280;38952;51.090;-1.832;2022-12-07T05:19:43;101054.25;;;0.23;94.47
51849;BME280;38952;51.090;-1.832;2022-12-07T05:22:09;101062.97;;;0.10;95.22
51849;BME280;38952;51.090;-1.832;2022-12-07T05:24:36;101081.31;;;0.07;95.86
51849;BME280;38952;51.090;-1.832;2022-12-07T05:27:02;101093.25;;;0.04;95.43
51849;BME280;38952;51.090;-1.832;2022-12-07T05:29:27;101066.38;;;-0.19;95.75
51849;BME280;38952;51.090;-1.832;2022-12-07T05:31:53;101080.72;;;-0.27;95.45
51849;BME280;38952;51.090;-1.832;2022-12-07T05:34:18;101062.31;;;-0.38;96.27
51849;BME280;38952;51.090;-1.832;2022-12-07T05:36:43;101091.47;;;-0.27;96.71
51849;BME280;38952;51.090;-1.832;2022-12-07T05:39:10;101078.44;;;-0.38;96.04
51849;BME280;38952;51.090;-1.832;2022-12-07T05:41:35;101063.75;;;-0.50;96.63
51849;BME280;38952;51.090;-1.832;2022-12-07T05:44:19;101072.16;;;-0.54;96.83
51849;BME280;38952;51.090;-1.832;2022-12-07T05:46:45;101078.19;;;-0.51;97.13
51849;BME280;38952;51.090;-1.832;2022-12-07T05:49:10;101084.22;;;-0.49;97.57
51849;BME280;38952;51.090;-1.832;2022-12-07T05:51:36;101070.19;;;-0.60;96.81
51849;BME280;38952;51.090;-1.832;2022-12-07T05:54:01;101060.47;;;-0.69;97.34
51849;BME280;38952;51.090;-1.832;2022-12-07T05:56:27;101062.16;;;-0.68;97.37
51849;BME280;38952;51.090;-1.832;2022-12-07T05:58:53;101067.00;;;-0.63;97.74
51849;BME280;38952;51.090;-1.832;2022-12-07T06:01:39;101057.50;;;-0.74;97.65
51849;BME280;38952;51.090;-1.832;2022-12-07T06:04:05;101067.19;;;-0.65;97.25
51849;BME280;38952;51.090;-1.832;2022-12-07T06:06:30;101076.53;;;-0.52;97.49
51849;BME280;38952;51.090;-1.832;2022-12-07T06:09:01;101076.81;;;-0.47;97.53
51849;BME280;38952;51.090;-1.832;2022-12-07T06:11:29;101063.38;;;-0.47;97.80
51849;BME280;38952;51.090;-1.832;2022-12-07T06:14:13;101055.19;;;-0.54;97.21
51849;BME280;38952;51.090;-1.832;2022-12-07T06:16:39;101074.16;;;-0.56;96.98
51849;BME280;38952;51.090;-1.832;2022-12-07T06:19:06;101050.44;;;-0.75;97.32
51849;BME280;38952;51.090;-1.832;2022-12-07T06:21:34;101054.53;;;-0.88;97.22
51849;BME280;38952;51.090;-1.832;2022-12-07T06:24:02;101047.88;;;-1.00;97.96
51849;BME280;38952;51.090;-1.832;2022-12-07T06:26:28;101069.50;;;-0.93;97.44
51849;BME280;38952;51.090;-1.832;2022-12-07T06:28:53;101054.28;;;-1.09;98.13
51849;BME280;38952;51.090;-1.832;2022-12-07T06:31:22;101077.44;;;-1.08;97.81
51849;BME280;38952;51.090;-1.832;2022-12-07T06:33:48;101075.13;;;-1.19;98.69
51849;BME280;38952;51.090;-1.832;2022-12-07T06:36:13;101084.38;;;-1.22;97.90
51849;BME280;38952;51.090;-1.832;2022-12-07T06:38:39;101079.69;;;-1.28;98.90
51849;BME280;38952;51.090;-1.832;2022-12-07T06:41:05;101076.66;;;-1.33;99.07
51849;BME280;38952;51.090;-1.832;2022-12-07T06:43:31;101047.38;;;-1.51;98.45
51849;BME280;38952;51.090;-1.832;2022-12-07T06:45:59;101067.47;;;-1.39;98.77
51849;BME280;38952;51.090;-1.832;2022-12-07T06:48:25;101076.84;;;-1.27;99.04
51849;BME280;38952;51.090;-1.832;2022-12-07T06:50:52;101062.78;;;-1.37;99.15
51849;BME280;38952;51.090;-1.832;2022-12-07T06:53:18;101076.66;;;-1.25;99.23
51849;BME280;38952;51.090;-1.832;2022-12-07T06:55:44;101076.13;;;-1.20;99.05
51849;BME280;38952;51.090;-1.832;2022-12-07T06:58:09;101077.47;;;-1.16;99.35
51849;BME280;38952;51.090;-1.832;2022-12-07T07:00:39;101064.75;;;-1.23;99.12
51849;BME280;38952;51.090;-1.832;2022-12-07T07:03:10;101034.09;;;-1.45;99.59
51849;BME280;38952;51.090;-1.832;2022-12-07T07:05:36;101081.84;;;-1.15;99.15
51849;BME280;38952;51.090;-1.832;2022-12-07T07:08:02;101080.16;;;-1.16;99.35
51849;BME280;38952;51.090;-1.832;2022-12-07T07:10:30;101058.06;;;-1.27;99.28
51849;BME280;38952;51.090;-1.832;2022-12-07T07:12:58;101060.06;;;-1.29;100.00
51849;BME280;38952;51.090;-1.832;2022-12-07T07:15:24;101072.81;;;-1.23;100.00
51849;BME280;38952;51.090;-1.832;2022-12-07T07:17:49;101068.44;;;-1.32;99.89
51849;BME280;38952;51.090;-1.832;2022-12-07T07:20:15;101064.13;;;-1.33;100.00
51849;BME280;38952;51.090;-1.832;2022-12-07T07:22:40;101089.22;;;-1.17;99.82
51849;BME280;38952;51.090;-1.832;2022-12-07T07:25:09;101079.34;;;-1.25;99.85
51849;BME280;38952;51.090;-1.832;2022-12-07T07:27:35;101097.59;;;-1.12;99.89
51849;BME280;38952;51.090;-1.832;2022-12-07T07:30:00;101095.94;;;-1.21;100.00
51849;BME280;38952;51.090;-1.832;2022-12-07T07:32:26;101082.50;;;-1.21;100.00
51849;BME280;38952;51.090;-1.832;2022-12-07T07:34:51;101090.56;;;-1.21;100.00
51849;BME280;38952;51.090;-1.832;2022-12-07T07:37:17;101080.69;;;-1.29;100.00
51849;BME280;38952;51.090;-1.832;2022-12-07T07:39:43;101067.16;;;-1.44;100.00
51849;BME280;38952;51.090;-1.832;2022-12-07T07:42:13;101053.25;;;-1.56;100.00
51849;BME280;38952;51.090;-1.832;2022-12-07T07:44:41;101057.44;;;-1.53;100.00
51849;BME280;38952;51.090;-1.832;2022-12-07T07:47:06;101080.75;;;-1.46;100.00
51849;BME280;38952;51.090;-1.832;2022-12-07T07:49:32;101057.81;;;-1.65;100.00
51849;BME280;38952;51.090;-1.832;2022-12-07T07:51:57;101084.59;;;-1.56;100.00
51849;BME280;38952;51.090;-1.832;2022-12-07T07:54:22;101082.44;;;-1.61;100.00
51849;BME280;38952;51.090;-1.832;2022-12-07T07:56:48;101069.53;;;-1.66;100.00
51849;BME280;38952;51.090;-1.832;2022-12-07T07:59:25;101061.81;;;-1.61;100.00
51849;BME280;38952;51.090;-1.832;2022-12-07T08:01:52;101085.94;;;-1.44;100.00
51849;BME280;38952;51.090;-1.832;2022-12-07T08:04:18;101077.53;;;-1.49;100.00
51849;BME280;38952;51.090;-1.832;2022-12-07T08:06:43;101095.31;;;-1.40;100.00
51849;BME280;38952;51.090;-1.832;2022-12-07T08:09:09;101086.94;;;-1.45;100.00
51849;BME280;38952;51.090;-1.832;2022-12-07T08:11:35;101088.97;;;-1.47;100.00
51849;BME280;38952;51.090;-1.832;2022-12-07T08:14:01;101083.38;;;-1.37;100.00
51849;BME280;38952;51.090;-1.832;2022-12-07T08:16:27;101093.59;;;-1.25;100.00
51849;BME280;38952;51.090;-1.832;2022-12-07T08:18:52;101102.47;;;-1.16;100.00
51849;BME280;38952;51.090;-1.832;2022-12-07T08:21:18;101088.22;;;-1.16;100.00
51849;BME280;38952;51.090;-1.832;2022-12-07T08:23:43;101085.19;;;-1.13;100.00
51849;BME280;38952;51.090;-1.832;2022-12-07T08:26:13;101103.91;;;-0.97;100.00
51849;BME280;38952;51.090;-1.832;2022-12-07T08:28:39;101096.53;;;-0.95;100.00
51849;BME280;38952;51.090;-1.832;2022-12-07T08:31:16;101085.44;;;-0.92;100.00
51849;BME280;38952;51.090;-1.832;2022-12-07T08:33:46;101077.84;;;-0.88;100.00
51849;BME280;38952;51.090;-1.832;2022-12-07T08:36:18;101108.13;;;-0.63;100.00
51849;BME280;38952;51.090;-1.832;2022-12-07T08:38:46;101079.28;;;-0.69;100.00
51849;BME280;38952;51.090;-1.832;2022-12-07T08:41:11;101099.03;;;-0.54;100.00
51849;BME280;38952;51.090;-1.832;2022-12-07T08:43:54;101079.03;;;-0.51;100.00
51849;BME280;38952;51.090;-1.832;2022-12-07T08:47:00;101073.59;;;-0.43;100.00
51849;BME280;38952;51.090;-1.832;2022-12-07T08:49:51;101088.31;;;-0.30;100.00
51849;BME280;38952;51.090;-1.832;2022-12-07T08:52:27;101091.25;;;-0.17;100.00
51849;BME280;38952;51.090;-1.832;2022-12-07T08:54:57;101100.09;;;-0.08;100.00
51849;BME280;38952;51.090;-1.832;2022-12-07T08:57:23;101076.16;;;-0.03;100.00
51849;BME280;38952;51.090;-1.832;2022-12-07T08:59:51;101085.50;;;0.09;100.00
51849;BME280;38952;51.090;-1.832;2022-12-07T09:02:45;101085.78;;;0.14;100.00
51849;BME280;38952;51.090;-1.832;2022-12-07T09:05:10;101078.66;;;0.22;100.00
51849;BME280;38952;51.090;-1.832;2022-12-07T09:07:36;101098.00;;;0.40;100.00
51849;BME280;38952;51.090;-1.832;2022-12-07T09:10:04;101090.22;;;0.45;100.00
51849;BME280;38952;51.090;-1.832;2022-12-07T09:12:29;101083.63;;;0.48;99.81
51849;BME280;38952;51.090;-1.832;2022-12-07T09:14:57;101092.56;;;0.63;99.43
51849;BME280;38952;51.090;-1.832;2022-12-07T09:17:25;101084.94;;;0.67;99.17
51849;BME280;38952;51.090;-1.832;2022-12-07T09:19:51;101087.47;;;0.83;98.29
51849;BME280;38952;51.090;-1.832;2022-12-07T09:22:16;101099.38;;;1.04;98.83
51849;BME280;38952;51.090;-1.832;2022-12-07T09:24:42;101090.06;;;1.21;98.12
51849;BME280;38952;51.090;-1.832;2022-12-07T09:27:08;101085.81;;;1.49;97.52
51849;BME280;38952;51.090;-1.832;2022-12-07T09:29:34;101088.28;;;2.93;99.52
51849;BME280;38952;51.090;-1.832;2022-12-07T09:32:01;101076.00;;;6.10;92.23
51849;BME280;38952;51.090;-1.832;2022-12-07T09:34:29;101093.38;;;9.32;75.38
51849;BME280;38952;51.090;-1.832;2022-12-07T09:36:58;101094.47;;;12.28;62.89
51849;BME280;38952;51.090;-1.832;2022-12-07T09:39:25;101090.44;;;14.72;54.41
51849;BME280;38952;51.090;-1.832;2022-12-07T09:41:54;101116.41;;;16.71;48.91
51849;BME280;38952;51.090;-1.832;2022-12-07T09:44:26;101099.09;;;17.81;46.31
51849;BME280;38952;51.090;-1.832;2022-12-07T09:46:52;101110.03;;;18.29;44.91
51849;BME280;38952;51.090;-1.832;2022-12-07T09:49:23;101113.53;;;19.15;43.86
51849;BME280;38952;51.090;-1.832;2022-12-07T09:52:27;101133.16;;;20.11;42.87
51849;BME280;38952;51.090;-1.832;2022-12-07T09:54:53;101132.06;;;20.80;40.88
51849;BME280;38952;51.090;-1.832;2022-12-07T09:57:27;101121.53;;;21.39;40.35
51849;BME280;38952;51.090;-1.832;2022-12-07T09:59:56;101118.09;;;21.42;40.03
51849;BME280;38952;51.090;-1.832;2022-12-07T10:02:35;101105.56;;;22.06;39.35
51849;BME280;38952;51.090;-1.832;2022-12-07T10:05:05;101094.56;;;23.18;37.87
51849;BME280;38952;51.090;-1.832;2022-12-07T10:07:31;101109.16;;;24.05;36.79
51849;BME280;38952;51.090;-1.832;2022-12-07T10:09:56;101095.75;;;24.32;34.57
51849;BME280;38952;51.090;-1.832;2022-12-07T10:12:25;101108.50;;;25.00;34.81
51849;BME280;38952;51.090;-1.832;2022-12-07T10:15:03;101115.56;;;25.43;33.49
51849;BME280;38952;51.090;-1.832;2022-12-07T10:17:34;101111.03;;;26.04;33.12
51849;BME280;38952;51.090;-1.832;2022-12-07T10:20:23;101103.47;;;26.48;32.83
51849;BME280;38952;51.090;-1.832;2022-12-07T10:23:05;101096.88;;;26.41;31.20
51849;BME280;38952;51.090;-1.832;2022-12-07T10:25:38;101085.31;;;26.58;31.08
51849;BME280;38952;51.090;-1.832;2022-12-07T10:30:47;101090.56;;;26.60;29.61
51849;BME280;38952;51.090;-1.832;2022-12-07T10:36:01;101072.69;;;27.64;28.75
51849;BME280;38952;51.090;-1.832;2022-12-07T10:39:16;101080.13;;;27.21;28.21
51849;BME280;38952;51.090;-1.832;2022-12-07T10:41:54;101059.66;;;26.88;29.45
51849;BME280;38952;51.090;-1.832;2022-12-07T10:44:29;101054.66;;;27.45;27.75
51849;BME280;38952;51.090;-1.832;2022-12-07T10:52:19;101073.28;;;29.21;23.91
51849;BME280;38952;51.090;-1.832;2022-12-07T11:05:49;101045.59;;;31.56;21.55
51849;BME280;38952;51.090;-1.832;2022-12-07T11:11:06;101036.22;;;32.29;21.74
51849;BME280;38952;51.090;-1.832;2022-12-07T11:16:26;101026.13;;;33.29;20.04
51849;BME280;38952;51.090;-1.832;2022-12-07T11:25:29;101022.41;;;34.42;19.29
51849;BME280;38952;51.090;-1.832;2022-12-07T11:28:33;100999.28;;;34.43;17.81
51849;BME280;38952;51.090;-1.832;2022-12-07T11:33:28;101002.59;;;35.25;18.06
51849;BME280;38952;51.090;-1.832;2022-12-07T11:36:17;100993.75;;;35.16;16.64
51849;BME280;38952;51.090;-1.832;2022-12-07T11:38:52;100992.44;;;35.24;16.87
51849;BME280;38952;51.090;-1.832;2022-12-07T11:41:23;100981.22;;;35.10;18.00
51849;BME280;38952;51.090;-1.832;2022-12-07T11:44:07;100981.47;;;35.61;17.17
51849;BME280;38952;51.090;-1.832;2022-12-07T11:46:54;100984.91;;;36.07;16.72
51849;BME280;38952;51.090;-1.832;2022-12-07T11:49:39;100977.34;;;36.51;16.93
51849;BME280;38952;51.090;-1.832;2022-12-07T11:52:06;100981.69;;;37.27;16.55
51849;BME280;38952;51.090;-1.832;2022-12-07T11:54:40;100968.53;;;37.53;15.87
51849;BME280;38952;51.090;-1.832;2022-12-07T11:57:24;100968.91;;;38.08;15.21
51849;BME280;38952;51.090;-1.832;2022-12-07T11:59:59;100961.97;;;37.93;15.48
51849;BME280;38952;51.090;-1.832;2022-12-07T12:02:41;100960.00;;;37.69;15.45
51849;BME280;38952;51.090;-1.832;2022-12-07T12:05:17;100953.91;;;37.87;14.95
51849;BME280;38952;51.090;-1.832;2022-12-07T12:21:28;100943.38;;;37.48;13.81
51849;BME280;38952;51.090;-1.832;2022-12-07T12:24:01;100922.72;;;37.60;14.07
51849;BME280;38952;51.090;-1.832;2022-12-07T12:26:31;100915.16;;;37.70;14.08
51849;BME280;38952;51.090;-1.832;2022-12-07T12:29:00;100923.53;;;37.97;14.08
51849;BME280;38952;51.090;-1.832;2022-12-07T12:33:55;100917.69;;;37.48;13.86
51849;BME280;38952;51.090;-1.832;2022-12-07T12:47:01;100905.75;;;36.25;14.07
51849;BME280;38952;51.090;-1.832;2022-12-07T12:49:36;100892.78;;;36.68;14.33
51849;BME280;38952;51.090;-1.832;2022-12-07T12:54:59;100882.41;;;36.38;13.36
51849;BME280;38952;51.090;-1.832;2022-12-07T12:57:30;100884.94;;;36.05;12.72
51849;BME280;38952;51.090;-1.832;2022-12-07T13:00:00;100880.53;;;35.73;13.82
51849;BME280;38952;51.090;-1.832;2022-12-07T13:02:30;100880.00;;;34.89;14.51
51849;BME280;38952;51.090;-1.832;2022-12-07T13:22:43;100823.34;;;27.77;18.50
51849;BME280;38952;51.090;-1.832;2022-12-07T13:25:18;100828.34;;;25.70;19.62
51849;BME280;38952;51.090;-1.832;2022-12-07T13:28:23;100802.13;;;23.66;21.90
51849;BME280;38952;51.090;-1.832;2022-12-07T13:31:16;100796.41;;;22.54;23.20
51849;BME280;38952;51.090;-1.832;2022-12-07T13:33:55;100810.63;;;21.54;24.36
51849;BME280;38952;51.090;-1.832;2022-12-07T13:36:23;100824.78;;;20.38;25.67
51849;BME280;38952;51.090;-1.832;2022-12-07T13:41:21;100814.47;;;17.66;28.41
51849;BME280;38952;51.090;-1.832;2022-12-07T13:46:33;100804.28;;;15.90;31.01
51849;BME280;38952;51.090;-1.832;2022-12-07T13:49:01;100799.19;;;15.43;32.27
51849;BME280;38952;51.090;-1.832;2022-12-07T13:51:34;100782.44;;;15.05;33.10
51849;BME280;38952;51.090;-1.832;2022-12-07T13:54:06;100791.84;;;14.99;33.49
51849;BME280;38952;51.090;-1.832;2022-12-07T13:56:37;100793.50;;;15.00;34.01
51849;BME280;38952;51.090;-1.832;2022-12-07T13:59:30;100782.63;;;14.79;33.95
51849;BME280;38952;51.090;-1.832;2022-12-07T14:01:58;100769.00;;;14.54;34.24
51849;BME280;38952;51.090;-1.832;2022-12-07T14:04:35;100770.53;;;14.75;35.00
51849;BME280;38952;51.090;-1.832;2022-12-07T14:09:53;100766.00;;;13.79;36.29
51849;BME280;38952;51.090;-1.832;2022-12-07T14:12:19;100772.66;;;12.86;37.68
51849;BME280;38952;51.090;-1.832;2022-12-07T14:14:48;100754.41;;;12.23;39.07
51849;BME280;38952;51.090;-1.832;2022-12-07T14:17:21;100762.59;;;12.13;40.05
51849;BME280;38952;51.090;-1.832;2022-12-07T14:19:57;100770.56;;;12.14;40.45
51849;BME280;38952;51.090;-1.832;2022-12-07T14:22:42;100752.06;;;11.89;41.55
51849;BME280;38952;51.090;-1.832;2022-12-07T14:25:25;100754.94;;;12.20;41.66
51849;BME280;38952;51.090;-1.832;2022-12-07T14:27:58;100756.75;;;12.88;41.02
51849;BME280;38952;51.090;-1.832;2022-12-07T14:30:27;100756.72;;;13.55;39.53
51849;BME280;38952;51.090;-1.832;2022-12-07T14:33:02;100762.44;;;14.89;38.23
51849;BME280;38952;51.090;-1.832;2022-12-07T14:35:29;100743.47;;;16.00;37.56
51849;BME280;38952;51.090;-1.832;2022-12-07T14:37:55;100739.22;;;16.89;34.86
51849;BME280;38952;51.090;-1.832;2022-12-07T14:40:25;100747.84;;;18.59;33.97
51849;BME280;38952;51.090;-1.832;2022-12-07T14:43:02;100747.34;;;20.89;31.49
51849;BME280;38952;51.090;-1.832;2022-12-07T14:45:29;100750.59;;;22.42;29.66
51849;BME280;38952;51.090;-1.832;2022-12-07T14:47:54;100744.78;;;23.11;29.02